createdAt,value
2022-10-08T00:00:02.338Z,1009.45
2022-10-08T00:01:01.950Z,1009.48
2022-10-08T00:02:03.181Z,1009.46
2022-10-08T00:03:02.557Z,1009.48
2022-10-08T00:04:03.050Z,1009.46
2022-10-08T00:05:02.946Z,1009.46
2022-10-08T00:06:02.973Z,1009.44
2022-10-08T00:07:03.491Z,1009.46
2022-10-08T00:08:03.529Z,1009.47
2022-10-08T00:09:02.972Z,1009.45
2022-10-08T00:10:03.355Z,1009.47
2022-10-08T00:11:03.130Z,1009.45
2022-10-08T00:12:03.546Z,1009.43
2022-10-08T00:13:02.953Z,1009.42
2022-10-08T00:14:03.301Z,1009.45
2022-10-08T00:15:02.982Z,1009.47
2022-10-08T00:16:03.411Z,1009.47
2022-10-08T00:17:02.664Z,1009.47
2022-10-08T00:18:02.382Z,1009.49
2022-10-08T00:19:02.646Z,1009.50
2022-10-08T00:20:02.847Z,1009.52
2022-10-08T00:21:02.239Z,1009.49
2022-10-08T00:22:02.257Z,1009.52
2022-10-08T00:23:02.596Z,1009.47
2022-10-08T00:24:02.305Z,1009.44
2022-10-08T00:25:02.686Z,1009.40
2022-10-08T00:26:02.821Z,1009.46
2022-10-08T00:27:02.500Z,1009.40
2022-10-08T00:28:02.948Z,1009.40
2022-10-08T00:29:02.409Z,1009.40
2022-10-08T00:30:02.807Z,1009.41
2022-10-08T00:31:02.932Z,1009.41
2022-10-08T00:32:02.714Z,1009.37
2022-10-08T00:33:02.537Z,1009.41
2022-10-08T00:34:02.963Z,1009.38
2022-10-08T00:35:02.523Z,1009.43
2022-10-08T00:36:02.602Z,1009.41
2022-10-08T00:37:02.611Z,1009.42
2022-10-08T00:38:02.299Z,1009.43
2022-10-08T00:39:02.713Z,1009.42
2022-10-08T00:40:02.210Z,1009.45
2022-10-08T00:41:02.637Z,1009.44
2022-10-08T00:42:02.609Z,1009.42
2022-10-08T00:43:02.604Z,1009.45
2022-10-08T00:44:02.801Z,1009.42
2022-10-08T00:45:02.516Z,1009.43
2022-10-08T00:46:02.997Z,1009.46
2022-10-08T00:47:02.534Z,1009.43
2022-10-08T00:48:02.949Z,1009.44
2022-10-08T00:49:02.733Z,1009.43
2022-10-08T00:50:02.584Z,1009.46
2022-10-08T00:51:02.543Z,1009.46
2022-10-08T00:52:03.568Z,1009.44
2022-10-08T00:53:03.021Z,1009.43
2022-10-08T00:54:03.456Z,1009.43
2022-10-08T00:55:03.278Z,1009.39
2022-10-08T00:56:02.944Z,1009.41
2022-10-08T00:57:02.377Z,1009.39
2022-10-08T00:58:02.682Z,1009.37
2022-10-08T00:59:02.364Z,1009.36
2022-10-08T01:00:02.628Z,1009.34
2022-10-08T01:01:03.065Z,1009.34
2022-10-08T01:02:02.649Z,1009.38
2022-10-08T01:03:02.909Z,1009.36
2022-10-08T01:04:02.599Z,1009.36
2022-10-08T01:05:02.958Z,1009.39
2022-10-08T01:06:02.681Z,1009.39
2022-10-08T01:07:03.241Z,1009.37
2022-10-08T01:08:03.633Z,1009.37
2022-10-08T01:09:03.112Z,1009.36
2022-10-08T01:10:03.491Z,1009.35
2022-10-08T01:11:03.343Z,1009.38
2022-10-08T01:12:02.700Z,1009.37
2022-10-08T01:13:02.724Z,1009.35
2022-10-08T01:14:03.134Z,1009.34
2022-10-08T01:15:02.793Z,1009.35
2022-10-08T01:16:03.242Z,1009.41
2022-10-08T01:17:02.801Z,1009.37
2022-10-08T01:18:03.107Z,1009.39
2022-10-08T01:19:03.243Z,1009.37
2022-10-08T01:20:02.686Z,1009.39
2022-10-08T01:21:03.041Z,1009.39
2022-10-08T01:22:03.407Z,1009.35
2022-10-08T01:23:03.679Z,1009.35
2022-10-08T01:24:03.391Z,1009.39
2022-10-08T01:25:03.465Z,1009.37
2022-10-08T01:26:04.177Z,1009.36
2022-10-08T01:27:02.704Z,1009.38
2022-10-08T01:28:02.857Z,1009.36
2022-10-08T01:29:02.651Z,1009.38
2022-10-08T01:30:03.008Z,1009.37
2022-10-08T01:31:02.697Z,1009.38
2022-10-08T01:32:03.081Z,1009.40
2022-10-08T01:33:03.250Z,1009.41
2022-10-08T01:34:03.044Z,1009.38
2022-10-08T01:35:02.977Z,1009.36
2022-10-08T01:36:03.490Z,1009.35
2022-10-08T01:37:03.133Z,1009.37
2022-10-08T01:38:03.183Z,1009.34
2022-10-08T01:39:03.574Z,1009.36
2022-10-08T01:40:03.026Z,1009.32
2022-10-08T01:41:03.400Z,1009.34
2022-10-08T01:42:03.184Z,1009.32
2022-10-08T01:43:02.944Z,1009.30
2022-10-08T01:44:02.743Z,1009.31
2022-10-08T01:45:03.151Z,1009.32
2022-10-08T01:46:03.005Z,1009.30
2022-10-08T01:47:03.738Z,1009.35
2022-10-08T01:48:03.808Z,1009.31
2022-10-08T01:49:03.495Z,1009.26
2022-10-08T01:50:03.825Z,1009.27
2022-10-08T01:51:03.591Z,1009.29
2022-10-08T01:52:03.102Z,1009.30
2022-10-08T01:53:03.188Z,1009.26
2022-10-08T01:54:02.840Z,1009.26
2022-10-08T01:55:03.124Z,1009.26
2022-10-08T01:56:02.782Z,1009.27
2022-10-08T01:57:03.142Z,1009.26
2022-10-08T01:58:03.005Z,1009.28
2022-10-08T01:59:03.384Z,1009.30
2022-10-08T02:00:03.272Z,1009.25
2022-10-08T02:01:03.106Z,1009.29
2022-10-08T02:02:03.271Z,1009.27
2022-10-08T02:03:03.376Z,1009.28
2022-10-08T02:04:03.269Z,1009.30
2022-10-08T02:05:02.942Z,1009.27
2022-10-08T02:06:03.310Z,1009.29
2022-10-08T02:07:02.723Z,1009.27
2022-10-08T02:08:03.063Z,1009.25
2022-10-08T02:09:02.483Z,1009.24
2022-10-08T02:10:02.815Z,1009.23
2022-10-08T02:11:02.510Z,1009.18
2022-10-08T02:12:02.807Z,1009.18
2022-10-08T02:13:03.167Z,1009.19
2022-10-08T02:14:02.575Z,1009.18
2022-10-08T02:15:02.936Z,1009.16
2022-10-08T02:16:02.691Z,1009.17
2022-10-08T02:17:03.093Z,1009.18
2022-10-08T02:18:02.814Z,1009.19
2022-10-08T02:19:03.185Z,1009.17
2022-10-08T02:20:02.790Z,1009.21
2022-10-08T02:21:03.164Z,1009.21
2022-10-08T02:22:02.615Z,1009.23
2022-10-08T02:23:02.402Z,1009.24
2022-10-08T02:24:02.810Z,1009.25
2022-10-08T02:25:02.629Z,1009.29
2022-10-08T02:26:02.743Z,1009.25
2022-10-08T02:27:03.110Z,1009.26
2022-10-08T02:28:03.188Z,1009.27
2022-10-08T02:29:02.934Z,1009.27
2022-10-08T02:30:02.948Z,1009.26
2022-10-08T02:31:03.332Z,1009.29
2022-10-08T02:32:02.559Z,1009.28
2022-10-08T02:33:02.733Z,1009.28
2022-10-08T02:34:02.426Z,1009.30
2022-10-08T02:35:02.623Z,1009.21
2022-10-08T02:36:02.481Z,1009.23
2022-10-08T02:37:02.764Z,1009.19
2022-10-08T02:38:02.465Z,1009.20
2022-10-08T02:39:02.853Z,1009.16
2022-10-08T02:40:02.728Z,1009.16
2022-10-08T02:41:03.090Z,1009.14
2022-10-08T02:42:03.407Z,1009.14
2022-10-08T02:43:02.887Z,1009.15
2022-10-08T02:44:03.016Z,1009.13
2022-10-08T02:45:03.332Z,1009.16
2022-10-08T02:46:03.169Z,1009.15
2022-10-08T02:47:02.602Z,1009.23
2022-10-08T02:48:02.364Z,1009.17
2022-10-08T02:49:02.623Z,1009.16
2022-10-08T02:50:02.387Z,1009.17
2022-10-08T02:51:02.699Z,1009.15
2022-10-08T02:52:02.946Z,1009.16
2022-10-08T02:53:02.896Z,1009.16
2022-10-08T02:54:02.603Z,1009.14
2022-10-08T02:55:02.997Z,1009.15
2022-10-08T02:56:02.691Z,1009.19
2022-10-08T02:57:07.112Z,1009.18
2022-10-08T02:58:02.556Z,1009.19
2022-10-08T02:59:02.308Z,1009.16
2022-10-08T03:00:02.719Z,1009.18
2022-10-08T03:01:02.292Z,1009.20
2022-10-08T03:02:02.517Z,1009.17
2022-10-08T03:03:02.324Z,1009.18
2022-10-08T03:04:02.064Z,1009.21
2022-10-08T03:05:02.478Z,1009.22
2022-10-08T03:06:02.269Z,1009.21
2022-10-08T03:07:02.130Z,1009.21
2022-10-08T03:08:02.552Z,1009.18
2022-10-08T03:09:02.359Z,1009.17
2022-10-08T03:10:02.159Z,1009.20
2022-10-08T03:11:02.399Z,1009.21
2022-10-08T03:12:02.832Z,1009.20
2022-10-08T03:13:02.759Z,1009.24
2022-10-08T03:14:02.424Z,1009.22
2022-10-08T03:15:02.452Z,1009.20
2022-10-08T03:16:02.429Z,1009.23
2022-10-08T03:17:01.939Z,1009.23
2022-10-08T03:18:01.816Z,1009.23
2022-10-08T03:19:02.212Z,1009.23
2022-10-08T03:20:01.896Z,1009.23
2022-10-08T03:21:02.067Z,1009.22
2022-10-08T03:22:01.787Z,1009.23
2022-10-08T03:23:02.145Z,1009.22
2022-10-08T03:24:02.010Z,1009.22
2022-10-08T03:25:02.399Z,1009.25
2022-10-08T03:26:02.028Z,1009.23
2022-10-08T03:27:02.291Z,1009.16
2022-10-08T03:28:02.554Z,1009.20
2022-10-08T03:29:02.577Z,1009.19
2022-10-08T03:30:02.537Z,1009.21
2022-10-08T03:31:02.712Z,1009.21
2022-10-08T03:32:02.845Z,1009.20
2022-10-08T03:33:02.257Z,1009.22
2022-10-08T03:34:02.536Z,1009.24
2022-10-08T03:35:02.691Z,1009.27
2022-10-08T03:36:02.395Z,1009.21
2022-10-08T03:37:02.191Z,1009.25
2022-10-08T03:38:02.298Z,1009.21
2022-10-08T03:39:02.031Z,1009.21
2022-10-08T03:40:02.403Z,1009.26
2022-10-08T03:41:02.372Z,1009.22
2022-10-08T03:42:01.865Z,1009.24
2022-10-08T03:43:01.560Z,1009.27
2022-10-08T03:44:02.060Z,1009.28
2022-10-08T03:45:01.423Z,1009.24
2022-10-08T03:46:01.904Z,1009.20
2022-10-08T03:47:01.567Z,1009.26
2022-10-08T03:48:02.002Z,1009.22
2022-10-08T03:49:01.567Z,1009.23
2022-10-08T03:50:01.970Z,1009.22
2022-10-08T03:51:01.986Z,1009.21
2022-10-08T03:52:01.949Z,1009.23
2022-10-08T03:53:01.679Z,1009.25
2022-10-08T03:54:02.024Z,1009.30
2022-10-08T03:55:01.866Z,1009.29
2022-10-08T03:56:01.662Z,1009.31
2022-10-08T03:57:02.028Z,1009.31
2022-10-08T03:58:02.568Z,1009.31
2022-10-08T03:59:02.480Z,1009.32
2022-10-08T04:00:02.446Z,1009.29
2022-10-08T04:01:02.349Z,1009.31
2022-10-08T04:02:03.690Z,1009.35
2022-10-08T04:03:03.290Z,1009.36
2022-10-08T04:04:03.578Z,1009.35
2022-10-08T04:05:03.648Z,1009.33
2022-10-08T04:06:03.536Z,1009.27
2022-10-08T04:07:02.462Z,1009.29
2022-10-08T04:08:02.856Z,1009.29
2022-10-08T04:09:02.596Z,1009.29
2022-10-08T04:10:02.944Z,1009.28
2022-10-08T04:11:03.019Z,1009.32
2022-10-08T04:12:03.438Z,1009.33
2022-10-08T04:13:03.350Z,1009.32
2022-10-08T04:14:03.073Z,1009.30
2022-10-08T04:15:03.713Z,1009.33
2022-10-08T04:16:03.440Z,1009.36
2022-10-08T04:17:02.752Z,1009.38
2022-10-08T04:18:02.622Z,1009.35
2022-10-08T04:19:03.213Z,1009.33
2022-10-08T04:20:03.163Z,1009.36
2022-10-08T04:21:03.152Z,1009.36
2022-10-08T04:22:02.898Z,1009.38
2022-10-08T04:23:03.071Z,1009.33
2022-10-08T04:24:03.312Z,1009.31
2022-10-08T04:25:02.882Z,1009.31
2022-10-08T04:26:03.328Z,1009.32
2022-10-08T04:27:02.547Z,1009.29
2022-10-08T04:28:02.386Z,1009.30
2022-10-08T04:29:02.590Z,1009.31
2022-10-08T04:30:02.439Z,1009.32
2022-10-08T04:31:02.893Z,1009.34
2022-10-08T04:32:02.824Z,1009.35
2022-10-08T04:33:02.533Z,1009.31
2022-10-08T04:34:02.304Z,1009.34
2022-10-08T04:35:02.371Z,1009.28
2022-10-08T04:36:02.742Z,1009.32
2022-10-08T04:37:02.525Z,1009.31
2022-10-08T04:38:02.519Z,1009.30
2022-10-08T04:39:02.527Z,1009.29
2022-10-08T04:40:02.866Z,1009.22
2022-10-08T04:41:02.462Z,1009.22
2022-10-08T04:42:02.899Z,1009.29
2022-10-08T04:43:02.725Z,1009.32
2022-10-08T04:44:03.173Z,1009.37
2022-10-08T04:45:02.669Z,1009.39
2022-10-08T04:46:03.158Z,1009.37
2022-10-08T04:47:02.480Z,1009.40
2022-10-08T04:48:02.380Z,1009.44
2022-10-08T04:49:02.813Z,1009.45
2022-10-08T04:50:02.320Z,1009.44
2022-10-08T04:51:05.761Z,1009.46
2022-10-08T04:52:03.158Z,1009.46
2022-10-08T04:53:03.315Z,1009.49
2022-10-08T04:54:03.433Z,1009.43
2022-10-08T04:55:02.897Z,1009.44
2022-10-08T04:56:03.287Z,1009.48
2022-10-08T04:57:02.747Z,1009.48
2022-10-08T04:58:02.775Z,1009.45
2022-10-08T04:59:02.528Z,1009.49
2022-10-08T05:00:19.160Z,1009.55
2022-10-08T05:01:02.744Z,1009.55
2022-10-08T05:02:02.278Z,1009.60
2022-10-08T05:03:01.964Z,1009.53
2022-10-08T05:04:02.383Z,1009.55
2022-10-08T05:05:02.410Z,1009.55
2022-10-08T05:06:02.397Z,1009.57
2022-10-08T05:07:02.267Z,1009.57
2022-10-08T05:08:02.759Z,1009.58
2022-10-08T05:09:02.561Z,1009.60
2022-10-08T05:10:02.337Z,1009.62
2022-10-08T05:11:02.490Z,1009.60
2022-10-08T05:12:02.732Z,1009.58
2022-10-08T05:13:02.496Z,1009.60
2022-10-08T05:14:02.553Z,1009.58
2022-10-08T05:15:02.904Z,1009.56
2022-10-08T05:16:03.084Z,1009.58
2022-10-08T05:17:02.362Z,1009.59
2022-10-08T05:18:02.112Z,1009.62
2022-10-08T05:19:02.110Z,1009.61
2022-10-08T05:20:02.050Z,1009.63
2022-10-08T05:21:02.448Z,1009.61
2022-10-08T05:22:02.425Z,1009.60
2022-10-08T05:23:02.447Z,1009.56
2022-10-08T05:24:02.127Z,1009.56
2022-10-08T05:25:02.071Z,1009.56
2022-10-08T05:26:02.463Z,1009.60
2022-10-08T05:27:02.947Z,1009.58
2022-10-08T05:28:02.846Z,1009.60
2022-10-08T05:29:02.727Z,1009.62
2022-10-08T05:30:02.763Z,1009.64
2022-10-08T05:31:02.653Z,1009.60
2022-10-08T05:32:02.643Z,1009.58
2022-10-08T05:33:02.227Z,1009.60
2022-10-08T05:34:02.674Z,1009.63
2022-10-08T05:35:02.461Z,1009.59
2022-10-08T05:36:02.579Z,1009.62
2022-10-08T05:37:02.662Z,1009.66
2022-10-08T05:38:02.882Z,1009.64
2022-10-08T05:39:02.478Z,1009.66
2022-10-08T05:40:03.139Z,1009.59
2022-10-08T05:41:02.519Z,1009.63
2022-10-08T05:42:02.762Z,1009.71
2022-10-08T05:43:02.677Z,1009.70
2022-10-08T05:44:02.582Z,1009.70
2022-10-08T05:45:02.614Z,1009.72
2022-10-08T05:46:02.521Z,1009.68
2022-10-08T05:47:02.438Z,1009.65
2022-10-08T05:48:02.186Z,1009.79
2022-10-08T05:49:02.119Z,1009.81
2022-10-08T05:50:02.302Z,1009.83
2022-10-08T05:51:02.083Z,1009.87
2022-10-08T05:52:02.255Z,1009.86
2022-10-08T05:53:02.746Z,1009.89
2022-10-08T05:54:02.091Z,1009.88
2022-10-08T05:55:02.609Z,1009.91
2022-10-08T05:56:02.034Z,1009.90
2022-10-08T05:57:02.551Z,1009.89
2022-10-08T05:58:02.835Z,1009.82
2022-10-08T05:59:02.801Z,1009.89
2022-10-08T06:00:02.726Z,1009.87
2022-10-08T06:01:02.537Z,1009.84
2022-10-08T06:02:02.554Z,1009.89
2022-10-08T06:03:02.282Z,1009.92
2022-10-08T06:04:08.040Z,1009.93
2022-10-08T06:05:02.407Z,1009.98
2022-10-08T06:06:02.398Z,1009.99
2022-10-08T06:07:02.444Z,1010.04
2022-10-08T06:08:02.927Z,1010.03
2022-10-08T06:09:02.581Z,1010.04
2022-10-08T06:10:02.324Z,1010.03
2022-10-08T06:11:02.646Z,1010.05
2022-10-08T06:12:01.799Z,1010.06
2022-10-08T06:13:02.149Z,1010.06
2022-10-08T06:14:02.223Z,1010.12
2022-10-08T06:15:01.846Z,1010.08
2022-10-08T06:16:01.692Z,1010.13
2022-10-08T06:17:02.289Z,1010.17
2022-10-08T06:18:02.352Z,1010.20
2022-10-08T06:19:02.622Z,1010.18
2022-10-08T06:20:02.372Z,1010.19
2022-10-08T06:21:02.251Z,1010.21
2022-10-08T06:22:01.928Z,1010.18
2022-10-08T06:23:01.904Z,1010.16
2022-10-08T06:24:02.174Z,1010.17
2022-10-08T06:25:02.353Z,1010.19
2022-10-08T06:26:02.045Z,1010.14
2022-10-08T06:27:01.984Z,1010.21
2022-10-08T06:28:02.392Z,1010.25
2022-10-08T06:29:02.133Z,1010.19
2022-10-08T06:30:01.883Z,1010.25
2022-10-08T06:31:01.885Z,1010.29
2022-10-08T06:32:02.583Z,1010.28
2022-10-08T06:33:02.571Z,1010.28
2022-10-08T06:34:02.540Z,1010.25
2022-10-08T06:35:02.806Z,1010.22
2022-10-08T06:36:02.749Z,1010.24
2022-10-08T06:37:02.020Z,1010.31
2022-10-08T06:38:02.077Z,1010.29
2022-10-08T06:39:02.230Z,1010.34
2022-10-08T06:40:02.192Z,1010.36
2022-10-08T06:41:02.093Z,1010.40
2022-10-08T06:42:02.560Z,1010.44
2022-10-08T06:43:02.519Z,1010.39
2022-10-08T06:44:02.522Z,1010.42
2022-10-08T06:45:02.976Z,1010.46
2022-10-08T06:46:02.504Z,1010.49
2022-10-08T06:47:02.810Z,1010.47
2022-10-08T06:48:02.837Z,1010.50
2022-10-08T06:49:02.767Z,1010.51
2022-10-08T06:50:02.700Z,1010.48
2022-10-08T06:51:02.696Z,1010.54
2022-10-08T06:52:02.025Z,1010.51
2022-10-08T06:53:01.934Z,1010.54
2022-10-08T06:54:07.280Z,1010.54
2022-10-08T06:55:01.972Z,1010.52
2022-10-08T06:56:01.932Z,1010.52
2022-10-08T06:57:02.332Z,1010.52
2022-10-08T06:58:02.635Z,1010.56
2022-10-08T06:59:02.698Z,1010.57
2022-10-08T07:00:02.550Z,1010.65
2022-10-08T07:01:02.658Z,1010.68
2022-10-08T07:02:02.989Z,1010.67
2022-10-08T07:03:02.751Z,1010.69
2022-10-08T07:04:03.005Z,1010.68
2022-10-08T07:05:03.143Z,1010.67
2022-10-08T07:06:02.837Z,1010.71
2022-10-08T07:07:02.950Z,1010.73
2022-10-08T07:08:03.121Z,1010.73
2022-10-08T07:09:02.774Z,1010.72
2022-10-08T07:10:03.118Z,1010.78
2022-10-08T07:11:02.974Z,1010.79
2022-10-08T07:12:03.366Z,1010.84
2022-10-08T07:13:03.246Z,1010.83
2022-10-08T07:14:03.185Z,1010.84
2022-10-08T07:15:03.144Z,1010.86
2022-10-08T07:16:03.460Z,1010.89
2022-10-08T07:17:02.991Z,1010.90
2022-10-08T07:18:02.754Z,1010.91
2022-10-08T07:19:02.701Z,1010.97
2022-10-08T07:20:03.219Z,1010.93
2022-10-08T07:21:03.114Z,1010.97
2022-10-08T07:22:02.723Z,1010.98
2022-10-08T07:23:02.449Z,1010.99
2022-10-08T07:24:02.734Z,1010.98
2022-10-08T07:25:02.678Z,1010.98
2022-10-08T07:26:02.766Z,1011.00
2022-10-08T07:27:03.282Z,1011.05
2022-10-08T07:28:03.175Z,1011.06
2022-10-08T07:29:03.070Z,1011.09
2022-10-08T07:30:03.020Z,1011.10
2022-10-08T07:31:03.053Z,1011.10
2022-10-08T07:32:03.716Z,1011.15
2022-10-08T07:33:03.911Z,1011.18
2022-10-08T07:34:03.686Z,1011.19
2022-10-08T07:35:03.308Z,1011.25
2022-10-08T07:36:03.660Z,1011.25
2022-10-08T07:37:03.070Z,1011.24
2022-10-08T07:38:03.295Z,1011.25
2022-10-08T07:39:03.293Z,1011.29
2022-10-08T07:40:03.297Z,1011.31
2022-10-08T07:41:03.310Z,1011.29
2022-10-08T07:42:03.232Z,1011.31
2022-10-08T07:43:02.690Z,1011.32
2022-10-08T07:44:02.935Z,1011.31
2022-10-08T07:45:02.941Z,1011.33
2022-10-08T07:46:03.042Z,1011.36
2022-10-08T07:47:03.416Z,1011.35
2022-10-08T07:48:02.850Z,1011.33
2022-10-08T07:49:03.506Z,1011.30
2022-10-08T07:50:03.271Z,1011.37
2022-10-08T07:51:03.092Z,1011.31
2022-10-08T07:52:03.076Z,1011.33
2022-10-08T07:53:03.112Z,1011.34
2022-10-08T07:54:03.208Z,1011.35
2022-10-08T07:55:03.278Z,1011.36
2022-10-08T07:56:03.557Z,1011.31
2022-10-08T07:57:02.389Z,1011.38
2022-10-08T07:58:02.620Z,1011.37
2022-10-08T07:59:02.568Z,1011.40
2022-10-08T08:00:02.489Z,1011.38
2022-10-08T08:01:02.507Z,1011.40
2022-10-08T08:02:03.514Z,1011.41
2022-10-08T08:03:03.187Z,1011.41
2022-10-08T08:04:03.033Z,1011.47
2022-10-08T08:05:03.350Z,1011.46
2022-10-08T08:06:02.872Z,1011.49
2022-10-08T08:07:03.495Z,1011.50
2022-10-08T08:08:03.280Z,1011.48
2022-10-08T08:09:03.313Z,1011.47
2022-10-08T08:10:03.328Z,1011.44
2022-10-08T08:11:03.318Z,1011.46
2022-10-08T08:12:03.704Z,1011.51
2022-10-08T08:13:03.458Z,1011.53
2022-10-08T08:14:03.425Z,1011.56
2022-10-08T08:15:03.783Z,1011.60
2022-10-08T08:16:03.444Z,1011.60
2022-10-08T08:17:03.192Z,1011.63
2022-10-08T08:18:02.959Z,1011.67
2022-10-08T08:19:02.741Z,1011.70
2022-10-08T08:20:02.722Z,1011.71
2022-10-08T08:21:02.808Z,1011.73
2022-10-08T08:22:02.760Z,1011.73
2022-10-08T08:23:02.945Z,1011.73
2022-10-08T08:24:03.304Z,1011.78
2022-10-08T08:25:02.848Z,1011.79
2022-10-08T08:26:03.246Z,1011.78
2022-10-08T08:27:03.428Z,1011.75
2022-10-08T08:28:03.769Z,1011.76
2022-10-08T08:29:03.265Z,1011.80
2022-10-08T08:30:03.215Z,1011.83
2022-10-08T08:31:03.388Z,1011.84
2022-10-08T08:32:02.520Z,1011.84
2022-10-08T08:33:02.779Z,1011.88
2022-10-08T08:34:02.760Z,1011.89
2022-10-08T08:35:02.763Z,1011.87
2022-10-08T08:36:02.372Z,1011.88
2022-10-08T08:37:02.740Z,1011.93
2022-10-08T08:38:02.721Z,1011.90
2022-10-08T08:39:03.298Z,1011.92
2022-10-08T08:40:03.275Z,1011.96
2022-10-08T08:41:02.822Z,1011.91
2022-10-08T08:42:02.464Z,1011.96
2022-10-08T08:43:02.893Z,1011.94
2022-10-08T08:44:02.488Z,1011.99
2022-10-08T08:45:02.715Z,1012.02
2022-10-08T08:46:02.467Z,1011.98
2022-10-08T08:47:02.992Z,1011.99
2022-10-08T08:48:03.057Z,1012.02
2022-10-08T08:49:03.083Z,1012.00
2022-10-08T08:50:03.207Z,1012.03
2022-10-08T08:51:03.143Z,1012.01
2022-10-08T08:52:03.337Z,1012.04
2022-10-08T08:53:03.227Z,1011.99
2022-10-08T08:54:03.566Z,1012.00
2022-10-08T08:55:03.362Z,1012.01
2022-10-08T08:56:03.322Z,1012.05
2022-10-08T08:57:03.306Z,1012.11
2022-10-08T08:58:04.341Z,1012.11
2022-10-08T08:59:03.519Z,1012.11
2022-10-08T09:00:03.330Z,1012.14
2022-10-08T09:01:03.935Z,1012.09
2022-10-08T09:02:02.468Z,1012.11
2022-10-08T09:03:02.917Z,1012.09
2022-10-08T09:04:02.750Z,1012.09
2022-10-08T09:05:02.999Z,1012.06
2022-10-08T09:06:02.436Z,1012.09
2022-10-08T09:07:03.129Z,1012.05
2022-10-08T09:08:03.361Z,1012.07
2022-10-08T09:09:03.463Z,1012.08
2022-10-08T09:10:03.462Z,1012.09
2022-10-08T09:11:03.214Z,1012.10
2022-10-08T09:12:02.511Z,1012.12
2022-10-08T09:13:02.895Z,1012.14
2022-10-08T09:14:02.869Z,1012.20
2022-10-08T09:15:02.764Z,1012.22
2022-10-08T09:16:02.430Z,1012.19
2022-10-08T09:17:02.969Z,1012.21
2022-10-08T09:18:03.136Z,1012.18
2022-10-08T09:19:03.092Z,1012.22
2022-10-08T09:20:02.652Z,1012.27
2022-10-08T09:21:03.067Z,1012.28
2022-10-08T09:22:02.363Z,1012.29
2022-10-08T09:23:02.311Z,1012.35
2022-10-08T09:24:02.775Z,1012.29
2022-10-08T09:25:02.340Z,1012.32
2022-10-08T09:26:02.398Z,1012.36
2022-10-08T09:27:02.262Z,1012.37
2022-10-08T09:28:02.597Z,1012.36
2022-10-08T09:29:02.308Z,1012.36
2022-10-08T09:30:02.622Z,1012.41
2022-10-08T09:31:08.040Z,1012.40
2022-10-08T09:32:02.864Z,1012.42
2022-10-08T09:33:02.357Z,1012.46
2022-10-08T09:34:02.432Z,1012.42
2022-10-08T09:35:02.652Z,1012.43
2022-10-08T09:36:02.656Z,1012.48
2022-10-08T09:37:02.950Z,1012.50
2022-10-08T09:38:05.869Z,1012.46
2022-10-08T09:39:02.923Z,1012.48
2022-10-08T09:40:02.925Z,1012.52
2022-10-08T09:41:03.327Z,1012.54
2022-10-08T09:42:03.292Z,1012.50
2022-10-08T09:43:03.486Z,1012.52
2022-10-08T09:44:03.073Z,1012.49
2022-10-08T09:45:03.243Z,1012.42
2022-10-08T09:46:03.198Z,1012.51
2022-10-08T09:47:03.318Z,1012.52
2022-10-08T09:48:03.283Z,1012.54
2022-10-08T09:49:03.247Z,1012.52
2022-10-08T09:50:03.138Z,1012.52
2022-10-08T09:51:03.612Z,1012.55
2022-10-08T09:52:02.861Z,1012.58
2022-10-08T09:53:02.932Z,1012.58
2022-10-08T09:54:02.740Z,1012.55
2022-10-08T09:55:03.109Z,1012.57
2022-10-08T09:56:02.876Z,1012.61
2022-10-08T09:57:02.865Z,1012.58
2022-10-08T09:58:03.204Z,1012.64
2022-10-08T09:59:02.876Z,1012.60
2022-10-08T10:00:02.579Z,1012.62
2022-10-08T10:01:02.938Z,1012.56
2022-10-08T10:02:03.416Z,1012.58
2022-10-08T10:03:03.430Z,1012.60
2022-10-08T10:04:03.683Z,1012.61
2022-10-08T10:05:03.702Z,1012.60
2022-10-08T10:06:03.404Z,1012.59
2022-10-08T10:07:03.539Z,1012.58
2022-10-08T10:08:03.679Z,1012.54
2022-10-08T10:09:03.732Z,1012.53
2022-10-08T10:10:03.625Z,1012.56
2022-10-08T10:11:03.551Z,1012.54
2022-10-08T10:12:02.940Z,1012.55
2022-10-08T10:13:02.598Z,1012.52
2022-10-08T10:14:03.103Z,1012.53
2022-10-08T10:15:02.653Z,1012.55
2022-10-08T10:16:03.259Z,1012.60
2022-10-08T10:17:03.141Z,1012.61
2022-10-08T10:18:03.366Z,1012.62
2022-10-08T10:19:02.746Z,1012.61
2022-10-08T10:20:03.296Z,1012.64
2022-10-08T10:21:03.268Z,1012.69
2022-10-08T10:22:03.387Z,1012.72
2022-10-08T10:23:03.644Z,1012.70
2022-10-08T10:24:03.229Z,1012.65
2022-10-08T10:25:03.431Z,1012.66
2022-10-08T10:26:06.577Z,1012.74
2022-10-08T10:27:03.090Z,1012.68
2022-10-08T10:28:02.729Z,1012.74
2022-10-08T10:29:02.742Z,1012.75
2022-10-08T10:30:02.698Z,1012.81
2022-10-08T10:31:03.352Z,1012.76
2022-10-08T10:32:03.594Z,1012.73
2022-10-08T10:33:03.405Z,1012.73
2022-10-08T10:34:03.445Z,1012.73
2022-10-08T10:35:03.325Z,1012.80
2022-10-08T10:36:03.581Z,1012.81
2022-10-08T10:37:03.627Z,1012.78
2022-10-08T10:38:03.821Z,1012.85
2022-10-08T10:39:03.265Z,1012.84
2022-10-08T10:40:03.354Z,1012.85
2022-10-08T10:41:03.406Z,1012.84
2022-10-08T10:42:03.114Z,1012.84
2022-10-08T10:43:03.076Z,1012.82
2022-10-08T10:44:03.129Z,1012.80
2022-10-08T10:45:03.302Z,1012.83
2022-10-08T10:46:03.344Z,1012.80
2022-10-08T10:47:03.591Z,1012.77
2022-10-08T10:48:03.480Z,1012.80
2022-10-08T10:49:03.643Z,1012.79
2022-10-08T10:50:03.683Z,1012.79
2022-10-08T10:51:03.706Z,1012.77
2022-10-08T10:52:03.288Z,1012.77
2022-10-08T10:53:03.130Z,1012.75
2022-10-08T10:54:03.384Z,1012.79
2022-10-08T10:55:03.324Z,1012.73
2022-10-08T10:56:03.339Z,1012.73
2022-10-08T10:57:03.967Z,1012.71
2022-10-08T10:58:03.521Z,1012.65
2022-10-08T10:59:03.561Z,1012.62
2022-10-08T11:00:04.093Z,1012.57
2022-10-08T11:01:03.941Z,1012.53
2022-10-08T11:02:03.349Z,1012.54
2022-10-08T11:03:03.498Z,1012.56
2022-10-08T11:04:03.286Z,1012.62
2022-10-08T11:05:03.215Z,1012.62
2022-10-08T11:06:03.207Z,1012.65
2022-10-08T11:07:03.393Z,1012.62
2022-10-08T11:08:03.055Z,1012.64
2022-10-08T11:09:02.985Z,1012.69
2022-10-08T11:10:03.082Z,1012.69
2022-10-08T11:11:03.126Z,1012.69
2022-10-08T11:12:02.522Z,1012.67
2022-10-08T11:13:02.249Z,1012.71
2022-10-08T11:14:02.393Z,1012.76
2022-10-08T11:15:02.044Z,1012.71
2022-10-08T11:16:02.062Z,1012.78
2022-10-08T11:17:03.012Z,1012.77
2022-10-08T11:18:02.444Z,1012.73
2022-10-08T11:19:03.027Z,1012.76
2022-10-08T11:20:02.667Z,1012.80
2022-10-08T11:21:02.415Z,1012.80
2022-10-08T11:22:02.837Z,1012.77
2022-10-08T11:23:02.798Z,1012.82
2022-10-08T11:24:02.898Z,1012.78
2022-10-08T11:25:02.987Z,1012.84
2022-10-08T11:26:21.456Z,1012.84
2022-10-08T11:27:02.152Z,1012.88
2022-10-08T11:28:02.429Z,1012.89
2022-10-08T11:29:02.390Z,1012.89
2022-10-08T11:30:02.730Z,1012.86
2022-10-08T11:31:02.258Z,1012.90
2022-10-08T11:32:02.809Z,1012.92
2022-10-08T11:33:03.288Z,1012.90
2022-10-08T11:34:03.271Z,1012.93
2022-10-08T11:35:03.028Z,1012.88
2022-10-08T11:36:03.364Z,1012.86
2022-10-08T11:37:03.429Z,1012.92
2022-10-08T11:38:02.513Z,1012.87
2022-10-08T11:39:02.657Z,1012.91
2022-10-08T11:40:03.035Z,1012.86
2022-10-08T11:41:02.843Z,1012.89
2022-10-08T11:42:03.071Z,1012.93
2022-10-08T11:43:02.553Z,1012.89
2022-10-08T11:44:02.561Z,1012.88
2022-10-08T11:45:02.652Z,1012.83
2022-10-08T11:46:02.707Z,1012.83
2022-10-08T11:47:02.724Z,1012.83
2022-10-08T11:48:06.433Z,1012.80
2022-10-08T11:49:02.909Z,1012.78
2022-10-08T11:50:02.856Z,1012.79
2022-10-08T11:51:02.812Z,1012.80
2022-10-08T11:52:02.729Z,1012.86
2022-10-08T11:53:02.932Z,1012.84
2022-10-08T11:54:03.269Z,1012.93
2022-10-08T11:55:02.716Z,1012.88
2022-10-08T11:56:03.072Z,1012.89
2022-10-08T11:57:03.100Z,1012.86
2022-10-08T11:58:09.994Z,1012.88
2022-10-08T11:59:03.108Z,1012.92
2022-10-08T12:00:08.012Z,1012.91
2022-10-08T12:02:03.470Z,1012.90
2022-10-08T12:03:02.573Z,1012.91
2022-10-08T12:04:02.452Z,1012.90
2022-10-08T12:05:02.447Z,1012.93
2022-10-08T12:06:02.366Z,1012.88